Time;durP1;ratioP1;P1;durP2;ratioP2;P2;SDS_P1;SDS_P2;PMS_P1;PMS_P2;Temp;Humidity;BMP_temperature;BMP_pressure;BME280_temperature;BME280_humidity;BME280_pressure;Samples;Min_cycle;Max_cycle;Signal;HPM_P1;HPM_P2
2022/09/12 00:01:59;;;;;;;;;;;16.10;99.90;;;;;;5057304;28;19912;-58
2022/09/12 00:04:26;;;;;;;;;;;16.10;99.90;;;;;;5057007;28;20276;-58
2022/09/12 00:06:52;;;;;;;;;;;16.10;99.90;;;;;;5057271;28;19909;-58
2022/09/12 00:09:18;;;;;;;;;;;16.00;99.90;;;;;;5056992;28;19927;-58
2022/09/12 00:11:44;;;;;;;;;;;16.10;99.90;;;;;;5056324;28;19912;-58
2022/09/12 00:14:11;;;;;;;;;;;15.90;99.90;;;;;;5072955;28;19912;-59
2022/09/12 00:16:37;;;;;;;;;;;15.90;99.90;;;;;;5057061;28;19916;-59
2022/09/12 00:19:04;;;;;;;;;;;15.90;99.90;;;;;;5056978;28;20015;-59
2022/09/12 00:21:31;;;;;;;;;;;15.90;99.90;;;;;;5056306;28;19920;-58
2022/09/12 00:23:57;;;;;;;;;;;15.90;99.90;;;;;;5057196;28;19909;-58
2022/09/12 00:26:23;;;;;;;;;;;15.80;99.90;;;;;;5056853;28;19949;-58
2022/09/12 00:28:48;;;;;;;;;;;15.80;99.90;;;;;;5039477;28;19924;-58
2022/09/12 00:31:19;;;;;;;;;;;15.80;99.90;;;;;;5057013;28;20024;-58
2022/09/12 00:33:44;;;;;;;;;;;15.80;99.90;;;;;;5056159;28;19917;-59
2022/09/12 00:36:15;;;;;;;;;;;15.80;99.90;;;;;;5056963;28;20287;-58
2022/09/12 00:38:41;;;;;;;;;;;15.80;99.90;;;;;;5056887;28;19908;-59
2022/09/12 00:41:11;;;;;;;;;;;15.80;99.90;;;;;;5056853;28;20248;-58
2022/09/12 00:43:37;;;;;;;;;;;15.70;99.90;;;;;;5056916;28;19931;-59
2022/09/12 00:46:10;;;;;;;;;;;15.70;99.90;;;;;;5057024;28;20243;-59
2022/09/12 00:48:41;;;;;;;;;;;15.60;99.90;;;;;;5056857;28;19908;-59
2022/09/12 00:51:07;;;;;;;;;;;15.60;99.90;;;;;;5056843;28;19913;-59
2022/09/12 00:53:33;;;;;;;;;;;15.50;99.90;;;;;;5056775;28;19919;-59
2022/09/12 00:55:59;;;;;;;;;;;15.50;99.90;;;;;;5056724;28;20200;-59
2022/09/12 00:58:27;;;;;;;;;;;15.50;99.90;;;;;;5056464;28;20204;-58
2022/09/12 01:00:53;;;;;;;;;;;15.50;99.90;;;;;;5056705;28;20058;-59
2022/09/12 01:03:20;;;;;;;;;;;15.50;99.90;;;;;;5057209;28;19959;-59
2022/09/12 01:05:58;;;;;;;;;;;15.50;99.90;;;;;;5058986;28;19908;-59
2022/09/12 01:08:24;;;;;;;;;;;15.40;99.90;;;;;;5060885;28;19995;-59
2022/09/12 01:10:51;;;;;;;;;;;15.50;99.90;;;;;;5060216;28;19912;-60
2022/09/12 01:13:17;;;;;;;;;;;15.50;99.90;;;;;;5060342;28;19954;-59
2022/09/12 01:15:42;;;;;;;;;;;15.50;99.90;;;;;;5060199;28;20021;-59
2022/09/12 01:18:27;;;;;;;;;;;15.60;99.90;;;;;;5060100;28;20231;-59
2022/09/12 01:21:11;;;;;;;;;;;15.50;99.90;;;;;;5060099;28;19909;-59
2022/09/12 01:23:36;;;;;;;;;;;15.50;99.90;;;;;;5059225;28;19954;-60
2022/09/12 01:26:08;;;;;;;;;;;15.40;99.90;;;;;;5060028;28;19997;-59
2022/09/12 01:28:34;;;;;;;;;;;15.40;99.90;;;;;;5059887;28;19920;-59
2022/09/12 01:31:07;;;;;;;;;;;15.30;99.90;;;;;;5059827;28;19912;-59
2022/09/12 01:33:34;;;;;;;;;;;15.30;99.90;;;;;;5059949;28;20283;-59
2022/09/12 01:36:12;;;;;;;;;;;15.20;99.90;;;;;;5060197;28;20002;-59
2022/09/12 01:38:43;;;;;;;;;;;15.20;99.90;;;;;;5075510;28;19990;-59
2022/09/12 01:41:28;;;;;;;;;;;15.20;99.90;;;;;;5060344;28;19917;-59
2022/09/12 01:44:14;;;;;;;;;;;15.30;99.90;;;;;;5059684;28;20300;-59
2022/09/12 01:46:48;;;;;;;;;;;15.20;99.90;;;;;;5058712;28;19908;-59
2022/09/12 01:49:21;;;;;;;;;;;15.20;99.90;;;;;;5058818;28;19970;-59
2022/09/12 01:51:50;;;;;;;;;;;15.30;99.90;;;;;;5059860;28;19912;-59
2022/09/12 01:54:19;;;;;;;;;;;15.30;99.90;;;;;;5059515;28;20280;-59
2022/09/12 01:56:47;;;;;;;;;;;15.20;99.90;;;;;;5059632;28;19959;-59
2022/09/12 01:59:13;;;;;;;;;;;15.20;99.90;;;;;;5059168;28;20216;-57
2022/09/12 02:01:47;;;;;;;;;;;15.20;99.90;;;;;;5059422;28;19909;-58
2022/09/12 02:04:18;;;;;;;;;;;15.20;99.90;;;;;;5059254;28;19908;-58
2022/09/12 02:06:48;;;;;;;;;;;15.20;99.90;;;;;;5059622;28;19932;-58
2022/09/12 02:09:19;;;;;;;;;;;15.20;99.90;;;;;;5058813;28;19952;-58
2022/09/12 02:11:46;;;;;;;;;;;15.30;99.90;;;;;;5058479;28;19909;-58
2022/09/12 02:14:15;;;;;;;;;;;15.20;99.90;;;;;;5075091;28;19912;-58
2022/09/12 02:16:47;;;;;;;;;;;15.20;99.90;;;;;;5074728;28;19934;-58
2022/09/12 02:19:17;;;;;;;;;;;15.20;99.90;;;;;;5058939;28;20188;-59
2022/09/12 02:21:45;;;;;;;;;;;15.20;99.90;;;;;;5059216;28;20000;-58
2022/09/12 02:24:13;;;;;;;;;;;15.20;99.90;;;;;;5058811;28;19934;-58
2022/09/12 02:27:00;;;;;;;;;;;15.10;99.90;;;;;;5074673;28;19908;-59
2022/09/12 02:29:26;;;;;;;;;;;15.20;99.90;;;;;;5057910;28;19913;-59
2022/09/12 02:32:12;;;;;;;;;;;15.20;99.90;;;;;;5059115;28;19908;-59
2022/09/12 02:34:42;;;;;;;;;;;15.30;99.90;;;;;;5057523;28;19909;-58
2022/09/12 02:37:22;;;;;;;;;;;15.20;99.90;;;;;;5058621;28;20003;-59
2022/09/12 02:39:48;;;;;;;;;;;15.20;99.90;;;;;;5058596;28;19923;-59
2022/09/12 02:42:13;;;;;;;;;;;15.10;99.90;;;;;;5058462;28;19913;-59
2022/09/12 02:44:39;;;;;;;;;;;15.10;99.90;;;;;;5057881;28;19908;-59
2022/09/12 02:47:24;;;;;;;;;;;15.10;99.90;;;;;;5074398;28;20296;-59
2022/09/12 02:49:50;;;;;;;;;;;15.10;99.90;;;;;;5058197;28;19919;-59
2022/09/12 02:52:16;;;;;;;;;;;15.20;99.90;;;;;;5058270;28;20189;-59
2022/09/12 02:54:42;;;;;;;;;;;15.20;99.90;;;;;;5058182;28;19913;-59
2022/09/12 02:57:16;;;;;;;;;;;15.20;99.90;;;;;;5058041;28;19958;-59
2022/09/12 02:59:41;;;;;;;;;;;15.20;99.90;;;;;;5058094;28;19912;-59
2022/09/12 03:02:26;;;;;;;;;;;15.20;99.90;;;;;;5058365;28;20306;-59
2022/09/12 03:04:59;;;;;;;;;;;15.20;99.90;;;;;;5057264;28;19908;-59
2022/09/12 03:07:37;;;;;;;;;;;15.20;99.90;;;;;;5058151;28;19908;-59
2022/09/12 03:10:06;;;;;;;;;;;15.20;99.90;;;;;;5057931;28;20184;-59
2022/09/12 03:12:51;;;;;;;;;;;15.10;99.90;;;;;;5057911;28;19909;-60
2022/09/12 03:15:22;;;;;;;;;;;15.00;99.90;;;;;;5073811;28;20016;-59
2022/09/12 03:18:07;;;;;;;;;;;15.00;99.90;;;;;;5057827;28;19913;-59
2022/09/12 03:20:48;;;;;;;;;;;15.00;99.90;;;;;;5057007;28;20232;-59
2022/09/12 03:23:25;;;;;;;;;;;15.00;99.90;;;;;;5058645;28;20239;-59
2022/09/12 03:26:03;;;;;;;;;;;15.00;99.90;;;;;;5057902;28;19986;-57
2022/09/12 03:28:30;;;;;;;;;;;14.90;99.90;;;;;;5056328;28;20277;-58
2022/09/12 03:30:56;;;;;;;;;;;14.90;99.90;;;;;;5057477;28;19962;-58
2022/09/12 03:33:24;;;;;;;;;;;14.90;99.90;;;;;;5057548;28;19913;-58
2022/09/12 03:35:50;;;;;;;;;;;14.90;99.90;;;;;;5057461;28;19908;-58
2022/09/12 03:38:16;;;;;;;;;;;14.80;99.90;;;;;;5073516;28;19912;-58
2022/09/12 03:40:42;;;;;;;;;;;14.80;99.90;;;;;;5057416;28;20224;-58
2022/09/12 03:43:08;;;;;;;;;;;14.80;99.90;;;;;;5057402;28;19912;-58
2022/09/12 03:45:34;;;;;;;;;;;14.80;99.90;;;;;;5057445;28;19962;-60
2022/09/12 03:48:00;;;;;;;;;;;14.80;99.90;;;;;;5057391;28;19988;-58
2022/09/12 03:50:26;;;;;;;;;;;14.80;99.90;;;;;;5056771;28;19919;-61
2022/09/12 03:52:52;;;;;;;;;;;14.80;99.90;;;;;;5057458;28;19909;-59
2022/09/12 03:55:18;;;;;;;;;;;14.80;99.90;;;;;;5057380;28;20066;-59
2022/09/12 03:57:44;;;;;;;;;;;14.90;99.90;;;;;;5057107;28;20185;-59
2022/09/12 04:00:10;;;;;;;;;;;14.90;99.90;;;;;;5057231;28;20011;-59
2022/09/12 04:02:38;;;;;;;;;;;14.80;99.90;;;;;;5057552;28;19916;-59
2022/09/12 04:05:04;;;;;;;;;;;14.80;99.90;;;;;;5057056;28;19923;-59
2022/09/12 04:07:30;;;;;;;;;;;14.90;99.90;;;;;;5057355;28;20030;-59
2022/09/12 04:09:55;;;;;;;;;;;14.90;99.90;;;;;;5057062;28;19916;-59
2022/09/12 04:12:21;;;;;;;;;;;14.90;99.90;;;;;;5057313;28;20208;-59
2022/09/12 04:14:47;;;;;;;;;;;14.90;99.90;;;;;;5057095;28;19909;-60
2022/09/12 04:17:13;;;;;;;;;;;14.80;99.90;;;;;;5056712;28;20011;-58
2022/09/12 04:19:39;;;;;;;;;;;14.80;99.90;;;;;;5057128;28;20150;-60
2022/09/12 04:22:04;;;;;;;;;;;14.80;99.90;;;;;;5056770;28;19924;-59
2022/09/12 04:24:30;;;;;;;;;;;14.70;99.90;;;;;;5057045;28;20281;-59
2022/09/12 04:26:56;;;;;;;;;;;14.70;99.90;;;;;;5056957;28;19909;-59
2022/09/12 04:29:21;;;;;;;;;;;14.70;99.90;;;;;;5056201;28;19961;-60
2022/09/12 04:31:47;;;;;;;;;;;14.70;99.90;;;;;;5056920;28;20348;-59
2022/09/12 04:34:14;;;;;;;;;;;14.70;99.90;;;;;;5039613;28;19967;-59
2022/09/12 04:36:39;;;;;;;;;;;14.80;99.90;;;;;;5056148;28;19909;-59
2022/09/12 04:39:06;;;;;;;;;;;14.70;99.90;;;;;;5057654;28;19912;-59
2022/09/12 04:41:36;;;;;;;;;;;14.70;99.90;;;;;;5076547;28;20007;-59
2022/09/12 04:44:07;;;;;;;;;;;14.70;99.90;;;;;;5061063;28;20184;-60
2022/09/12 04:46:38;;;;;;;;;;;14.80;99.90;;;;;;5060934;28;20004;-59
2022/09/12 04:49:04;;;;;;;;;;;14.80;99.90;;;;;;5061035;28;20196;-62
2022/09/12 04:51:31;;;;;;;;;;;14.80;99.90;;;;;;5076516;28;19908;-59
2022/09/12 04:54:03;;;;;;;;;;;14.90;99.90;;;;;;5060017;28;19917;-59
2022/09/12 04:56:29;;;;;;;;;;;14.80;99.90;;;;;;5060492;28;19912;-59
2022/09/12 04:58:58;;;;;;;;;;;14.70;99.90;;;;;;5060599;28;19982;-59
2022/09/12 05:01:23;;;;;;;;;;;14.60;99.90;;;;;;5043165;28;19912;-59
2022/09/12 05:03:49;;;;;;;;;;;14.60;99.90;;;;;;5060802;28;20015;-60
2022/09/12 05:06:20;;;;;;;;;;;14.60;99.90;;;;;;5060777;28;19912;-60
2022/09/12 05:08:46;;;;;;;;;;;14.60;99.90;;;;;;5060330;28;19919;-59
2022/09/12 05:11:22;;;;;;;;;;;14.60;99.90;;;;;;5060390;28;19916;-60
2022/09/12 05:13:49;;;;;;;;;;;14.60;99.90;;;;;;5060077;28;19913;-59
2022/09/12 05:16:15;;;;;;;;;;;14.70;99.90;;;;;;5060511;28;19978;-60
2022/09/12 05:18:41;;;;;;;;;;;14.60;99.90;;;;;;5059856;28;20307;-59
2022/09/12 05:21:08;;;;;;;;;;;14.50;99.90;;;;;;5059286;28;19909;-60
2022/09/12 05:23:34;;;;;;;;;;;14.50;99.90;;;;;;5059812;28;20284;-60
2022/09/12 05:26:00;;;;;;;;;;;14.50;99.90;;;;;;5059193;28;19908;-60
2022/09/12 05:28:32;;;;;;;;;;;14.50;99.90;;;;;;5059746;28;20003;-61
2022/09/12 05:31:05;;;;;;;;;;;14.50;99.90;;;;;;5059725;28;19912;-61
2022/09/12 05:33:32;;;;;;;;;;;14.50;99.90;;;;;;5059795;28;19913;-60
2022/09/12 05:35:58;;;;;;;;;;;14.60;99.90;;;;;;5059850;28;19912;-61
2022/09/12 05:38:24;;;;;;;;;;;14.50;99.90;;;;;;5059654;28;20192;-62
2022/09/12 05:40:50;;;;;;;;;;;14.60;99.90;;;;;;5059677;28;20284;-60
2022/09/12 05:43:16;;;;;;;;;;;14.70;99.90;;;;;;5059916;28;19913;-59
2022/09/12 05:45:41;;;;;;;;;;;14.60;99.90;;;;;;5059463;28;19923;-61
2022/09/12 05:48:07;;;;;;;;;;;14.60;99.90;;;;;;5059464;28;19919;-61
2022/09/12 05:50:32;;;;;;;;;;;14.60;99.90;;;;;;5059063;28;20315;-61
2022/09/12 05:52:58;;;;;;;;;;;14.60;99.90;;;;;;5059349;28;19917;-60
2022/09/12 05:55:24;;;;;;;;;;;14.80;99.90;;;;;;5059363;28;19921;-60
2022/09/12 05:57:49;;;;;;;;;;;14.90;99.90;;;;;;5059141;28;20311;-61
2022/09/12 06:00:16;;;;;;;;;;;14.90;99.90;;;;;;5058702;28;19913;-61
2022/09/12 06:02:41;;;;;;;;;;;14.90;99.90;;;;;;5059345;28;19908;-61
2022/09/12 06:05:07;;;;;;;;;;;14.90;99.90;;;;;;5058518;28;19916;-61
2022/09/12 06:07:34;;;;;;;;;;;14.90;99.90;;;;;;5075344;28;19912;-59
2022/09/12 06:10:00;;;;;;;;;;;14.90;99.90;;;;;;5058184;28;20078;-60
2022/09/12 06:12:28;;;;;;;;;;;15.00;99.90;;;;;;5075372;28;20355;-60
2022/09/12 06:14:54;;;;;;;;;;;15.00;99.90;;;;;;5058397;28;20285;-59
2022/09/12 06:17:21;;;;;;;;;;;15.00;99.90;;;;;;5058982;28;19908;-59
2022/09/12 06:19:46;;;;;;;;;;;15.00;99.90;;;;;;5074928;28;19940;-58
2022/09/12 06:22:12;;;;;;;;;;;15.10;99.90;;;;;;5058889;28;20245;-59
2022/09/12 06:24:38;;;;;;;;;;;15.20;99.90;;;;;;5059009;28;19924;-62
2022/09/12 06:27:04;;;;;;;;;;;15.20;99.90;;;;;;5058855;28;19974;-61
2022/09/12 06:29:31;;;;;;;;;;;16.20;99.90;;;;;;5058824;28;19916;-61
2022/09/12 06:31:57;;;;;;;;;;;16.10;99.90;;;;;;5058158;28;20000;-60
2022/09/12 06:34:23;;;;;;;;;;;16.00;99.90;;;;;;5058667;28;20292;-60
2022/09/12 06:36:49;;;;;;;;;;;16.00;99.90;;;;;;5058785;28;19940;-61
2022/09/12 06:39:16;;;;;;;;;;;16.00;99.90;;;;;;5058054;28;20310;-60
2022/09/12 06:41:42;;;;;;;;;;;16.00;99.90;;;;;;5058646;28;19915;-60
2022/09/12 06:44:11;;;;;;;;;;;16.10;99.90;;;;;;5058608;28;20041;-60
2022/09/12 06:46:36;;;;;;;;;;;16.20;99.90;;;;;;5057724;28;19905;-60
2022/09/12 06:49:02;;;;;;;;;;;16.30;99.90;;;;;;5058319;28;19923;-60
2022/09/12 06:51:28;;;;;;;;;;;16.40;99.90;;;;;;5058903;28;19912;-60
2022/09/12 06:53:54;;;;;;;;;;;16.50;99.90;;;;;;5058239;28;19913;-60
2022/09/12 06:56:21;;;;;;;;;;;16.60;99.90;;;;;;5058192;28;19917;-61
2022/09/12 06:58:48;;;;;;;;;;;16.80;99.90;;;;;;5057238;28;19920;-60
2022/09/12 07:01:14;;;;;;;;;;;16.80;99.90;;;;;;5058687;28;19908;-60
2022/09/12 07:03:40;;;;;;;;;;;16.90;99.90;;;;;;5057056;28;19997;-60
2022/09/12 07:06:10;;;;;;;;;;;17.10;99.90;;;;;;5057967;28;19909;-61
2022/09/12 07:08:36;;;;;;;;;;;17.00;99.90;;;;;;5057798;28;19913;-60
2022/09/12 07:11:13;;;;;;;;;;;17.00;99.90;;;;;;5057842;28;20327;-61
2022/09/12 07:13:39;;;;;;;;;;;17.00;99.90;;;;;;5057881;28;20237;-61
2022/09/12 07:16:05;;;;;;;;;;;16.70;99.90;;;;;;5058408;28;19908;-61
2022/09/12 07:18:31;;;;;;;;;;;16.70;99.90;;;;;;5057689;28;19913;-61
2022/09/12 07:20:58;;;;;;;;;;;16.80;99.90;;;;;;5057752;28;19998;-61
2022/09/12 07:23:24;;;;;;;;;;;16.80;99.90;;;;;;5057676;28;19916;-61
2022/09/12 07:25:55;;;;;;;;;;;16.90;99.90;;;;;;5057639;28;20280;-61
2022/09/12 07:28:20;;;;;;;;;;;17.00;99.90;;;;;;5057725;28;19944;-61
2022/09/12 07:30:46;;;;;;;;;;;17.10;99.90;;;;;;5057458;28;19959;-60
2022/09/12 07:33:12;;;;;;;;;;;17.20;99.90;;;;;;5057490;28;19966;-60
2022/09/12 07:35:37;;;;;;;;;;;17.50;99.90;;;;;;5057498;28;19999;-61
2022/09/12 07:38:03;;;;;;;;;;;17.60;99.90;;;;;;5069593;22;19917;-61
2022/09/12 07:40:29;;;;;;;;;;;17.50;99.90;;;;;;5076827;28;20014;-61
2022/09/12 07:42:54;;;;;;;;;;;17.60;99.90;;;;;;5076938;28;19912;-62
2022/09/12 07:45:20;;;;;;;;;;;17.60;99.90;;;;;;5059843;28;19923;-62
2022/09/12 07:47:46;;;;;;;;;;;17.70;99.90;;;;;;5077368;28;20304;-62
2022/09/12 07:50:11;;;;;;;;;;;17.80;99.90;;;;;;5077231;28;19974;-62
2022/09/12 07:52:37;;;;;;;;;;;17.90;99.90;;;;;;5077166;28;20288;-62
2022/09/12 07:55:03;;;;;;;;;;;17.80;99.90;;;;;;5077490;28;19970;-61
2022/09/12 07:57:28;;;;;;;;;;;17.90;99.90;;;;;;5077474;28;19923;-61
2022/09/12 07:59:55;;;;;;;;;;;18.00;99.90;;;;;;5077185;28;19920;-61
2022/09/12 08:02:21;;;;;;;;;;;18.10;99.90;;;;;;5076630;28;20272;-62
2022/09/12 08:04:48;;;;;;;;;;;18.20;99.90;;;;;;5076485;28;19920;-61
2022/09/12 08:07:13;;;;;;;;;;;18.30;99.90;;;;;;5077598;28;20268;-62
2022/09/12 08:09:39;;;;;;;;;;;18.40;99.90;;;;;;5076304;28;20031;-61
2022/09/12 08:12:05;;;;;;;;;;;18.50;99.90;;;;;;5076555;28;19912;-62
2022/09/12 08:14:31;;;;;;;;;;;18.60;99.90;;;;;;5081344;28;20230;-62
2022/09/12 08:16:56;;;;;;;;;;;18.70;99.90;;;;;;5083977;28;20275;-61
2022/09/12 08:19:22;;;;;;;;;;;18.80;99.90;;;;;;5083835;28;19916;-61
2022/09/12 08:21:47;;;;;;;;;;;18.70;99.90;;;;;;5083209;28;20176;-61
2022/09/12 08:24:14;;;;;;;;;;;18.80;99.90;;;;;;5083813;28;19912;-61
2022/09/12 08:26:40;;;;;;;;;;;19.00;99.90;;;;;;5083759;28;19908;-64
2022/09/12 08:29:05;;;;;;;;;;;19.20;99.90;;;;;;5083150;28;19909;-65
2022/09/12 08:31:35;;;;;;;;;;;19.10;99.90;;;;;;5083800;28;19936;-62
2022/09/12 08:34:01;;;;;;;;;;;19.00;99.90;;;;;;5083676;28;20165;-59
2022/09/12 08:36:28;;;;;;;;;;;19.10;99.90;;;;;;5083735;28;20335;-58
2022/09/12 08:38:55;;;;;;;;;;;19.00;99.90;;;;;;5083585;28;19931;-59
2022/09/12 08:41:30;;;;;;;;;;;19.20;99.90;;;;;;5083715;28;19912;-58
2022/09/12 08:43:56;;;;;;;;;;;19.30;99.90;;;;;;5083633;28;20283;-59
2022/09/12 08:46:25;;;;;;;;;;;19.50;99.90;;;;;;5082933;28;19908;-58
2022/09/12 08:48:51;;;;;;;;;;;19.60;99.90;;;;;;5083689;28;19919;-58
2022/09/12 08:51:18;;;;;;;;;;;19.50;99.90;;;;;;5082931;28;19913;-63
2022/09/12 08:53:46;;;;;;;;;;;19.70;99.90;;;;;;5083557;28;20287;-48
2022/09/12 08:56:11;;;;;;;;;;;19.70;99.90;;;;;;5083511;28;19919;-52
2022/09/12 08:58:42;;;;;;;;;;;19.70;99.90;;;;;;5083399;28;19908;-48
2022/09/12 09:01:07;;;;;;;;;;;19.70;99.90;;;;;;5084131;28;19916;-63
2022/09/12 09:03:39;;;;;;;;;;;19.70;99.90;;;;;;5082773;28;19905;-49
2022/09/12 09:06:17;;;;;;;;;;;19.70;99.90;;;;;;5083985;28;19962;-46
2022/09/12 09:08:43;;;;;;;;;;;19.90;99.90;;;;;;5083165;28;19908;-53
2022/09/12 09:11:35;;;;;;;;;;;20.10;99.90;;;;;;5083367;28;19924;-67
2022/09/12 09:17:07;;;;;;;;;;;20.00;99.90;;;;;;5083374;28;19909;-67
2022/09/12 09:19:36;;;;;;;;;;;19.90;99.90;;;;;;5082590;28;19923;-67
2022/09/12 09:22:05;;;;;;;;;;;20.00;99.90;;;;;;5083349;28;20280;-66
2022/09/12 09:24:37;;;;;;;;;;;20.10;99.90;;;;;;5083163;28;19905;-66
2022/09/12 09:27:11;;;;;;;;;;;20.10;99.90;;;;;;5079531;28;19908;-66
2022/09/12 09:29:40;;;;;;;;;;;20.30;99.90;;;;;;5079430;28;20302;-66
2022/09/12 09:32:17;;;;;;;;;;;20.30;99.90;;;;;;5080267;28;19908;-66
2022/09/12 09:34:43;;;;;;;;;;;20.40;99.90;;;;;;5079856;28;20180;-66
2022/09/12 09:37:14;;;;;;;;;;;20.40;99.90;;;;;;5079970;28;19912;-67
2022/09/12 09:40:00;;;;;;;;;;;20.30;99.90;;;;;;5079704;28;19916;-66
2022/09/12 09:42:26;;;;;;;;;;;20.40;99.90;;;;;;5095405;28;20307;-66
2022/09/12 09:44:52;;;;;;;;;;;20.50;99.90;;;;;;5079087;28;19916;-67
2022/09/12 09:47:18;;;;;;;;;;;20.70;99.90;;;;;;5079746;28;19920;-67
2022/09/12 09:49:45;;;;;;;;;;;20.90;99.90;;;;;;5078826;28;19916;-67
2022/09/12 09:52:13;;;;;;;;;;;20.90;99.90;;;;;;5079062;28;19985;-67
2022/09/12 09:54:56;;;;;;;;;;;21.00;99.90;;;;;;5079669;28;20192;-57
2022/09/12 09:57:34;;;;;;;;;;;21.10;99.90;;;;;;5079975;28;19931;-67
2022/09/12 10:00:20;;;;;;;;;;;21.10;99.90;;;;;;5078713;28;20236;-66
2022/09/12 10:03:03;;;;;;;;;;;21.20;99.90;;;;;;5078665;28;19919;-66
2022/09/12 10:05:30;;;;;;;;;;;21.20;99.90;;;;;;5095582;28;20230;-65
2022/09/12 10:07:55;;;;;;;;;;;21.30;99.90;;;;;;5095583;28;19905;-62
2022/09/12 10:10:24;;;;;;;;;;;21.30;99.90;;;;;;5078507;28;20177;-63
2022/09/12 10:12:50;;;;;;;;;;;21.60;99.90;;;;;;5079727;28;19923;-63
2022/09/12 10:15:18;;;;;;;;;;;21.90;99.90;;;;;;5079213;28;19919;-63
2022/09/12 10:17:48;;;;;;;;;;;22.10;99.90;;;;;;5079696;28;19912;-63
2022/09/12 10:20:29;;;;;;;;;;;22.50;99.90;;;;;;5079108;28;19908;-63
2022/09/12 10:22:54;;;;;;;;;;;22.40;99.90;;;;;;5079013;28;19965;-63
2022/09/12 10:25:22;;;;;;;;;;;22.60;99.90;;;;;;5079044;28;19944;-57
2022/09/12 10:27:55;;;;;;;;;;;22.90;99.90;;;;;;5078912;28;19908;-66
2022/09/12 10:30:26;;;;;;;;;;;23.20;99.90;;;;;;5095009;28;20287;-66
2022/09/12 10:32:58;;;;;;;;;;;23.10;99.90;;;;;;5079345;28;19920;-67
2022/09/12 10:35:27;;;;;;;;;;;23.40;99.90;;;;;;5094855;28;19951;-68
2022/09/12 10:37:55;;;;;;;;;;;23.50;99.90;;;;;;5094495;28;20202;-67
2022/09/12 10:40:23;;;;;;;;;;;24.40;99.90;;;;;;5078793;28;20222;-68
2022/09/12 10:42:59;;;;;;;;;;;24.80;99.90;;;;;;5078706;28;19908;-68
2022/09/12 10:45:27;;;;;;;;;;;25.50;99.90;;;;;;5078729;28;19908;-67
2022/09/12 10:47:54;;;;;;;;;;;25.80;99.90;;;;;;5079188;28;19908;-67
2022/09/12 10:50:21;;;;;;;;;;;25.90;99.90;;;;;;5094846;28;19916;-69
2022/09/12 10:52:47;;;;;;;;;;;26.40;99.90;;;;;;5077761;28;20295;-67
2022/09/12 10:55:16;;;;;;;;;;;27.10;99.90;;;;;;5077609;28;19912;-67
2022/09/12 10:57:51;;;;;;;;;;;27.80;99.90;;;;;;5078278;28;19912;-68
2022/09/12 11:00:19;;;;;;;;;;;26.40;99.90;;;;;;5078451;28;19915;-70
2022/09/12 11:03:01;;;;;;;;;;;26.10;99.90;;;;;;5078542;28;19908;-68
2022/09/12 11:05:31;;;;;;;;;;;26.50;99.90;;;;;;5078352;28;19930;-69
2022/09/12 11:08:03;;;;;;;;;;;27.30;99.90;;;;;;5078105;28;19970;-68
2022/09/12 11:10:32;;;;;;;;;;;28.80;99.90;;;;;;5094226;28;19922;-69
2022/09/12 11:13:00;;;;;;;;;;;28.00;99.90;;;;;;5077796;28;19914;-67
2022/09/12 11:15:29;;;;;;;;;;;26.90;99.90;;;;;;5077203;28;19908;-67
2022/09/12 11:17:58;;;;;;;;;;;26.70;99.90;;;;;;5078098;28;20276;-68
2022/09/12 11:20:43;;;;;;;;;;;26.30;99.90;;;;;;5077194;28;20303;-67
2022/09/12 11:23:27;;;;;;;;;;;26.50;99.90;;;;;;5077879;28;19912;-67
2022/09/12 11:25:56;;;;;;;;;;;26.60;99.90;;;;;;5077675;28;19931;-68
2022/09/12 11:28:28;;;;;;;;;;;27.80;99.90;;;;;;5077726;28;19915;-68
2022/09/12 11:30:53;;;;;;;;;;;29.40;99.90;;;;;;5077600;28;19912;-69
2022/09/12 11:33:40;;;;;;;;;;;30.40;99.90;;;;;;5077692;28;19962;-68
2022/09/12 11:36:11;;;;;;;;;;;31.40;98.60;;;;;;5077573;28;19909;-68
2022/09/12 11:38:46;;;;;;;;;;;31.20;95.60;;;;;;5077062;28;19921;-69
2022/09/12 11:41:22;;;;;;;;;;;30.70;95.50;;;;;;5078022;28;19938;-68
2022/09/12 11:43:57;;;;;;;;;;;30.80;94.30;;;;;;5077862;28;20448;-69
2022/09/12 11:46:35;;;;;;;;;;;31.60;93.50;;;;;;5077517;28;20241;-62
2022/09/12 11:49:12;;;;;;;;;;;31.10;93.90;;;;;;5076834;28;20288;-61
2022/09/12 11:51:48;;;;;;;;;;;30.40;95.10;;;;;;5077473;28;20231;-70
2022/09/12 11:54:21;;;;;;;;;;;31.20;93.70;;;;;;5076666;28;20003;-64
2022/09/12 11:56:48;;;;;;;;;;;32.10;92.40;;;;;;5077496;28;19916;-62
2022/09/12 11:59:31;;;;;;;;;;;32.30;90.40;;;;;;5077702;28;19908;-63
2022/09/12 12:01:58;;;;;;;;;;;32.50;88.40;;;;;;5076987;28;20348;-62
2022/09/12 12:04:28;;;;;;;;;;;32.60;85.50;;;;;;5077383;28;19973;-62
2022/09/12 12:07:03;;;;;;;;;;;32.70;83.30;;;;;;5094184;28;19995;-62
2022/09/12 12:09:30;;;;;;;;;;;33.10;82.40;;;;;;5077213;28;19912;-62
2022/09/12 12:11:57;;;;;;;;;;;32.30;81.50;;;;;;5076634;28;20303;-62
2022/09/12 12:14:25;;;;;;;;;;;31.40;84.00;;;;;;5093336;28;19908;-61
2022/09/12 12:16:51;;;;;;;;;;;30.70;82.50;;;;;;5077286;28;20283;-61
2022/09/12 12:19:17;;;;;;;;;;;30.70;85.30;;;;;;5077266;28;20030;-60
2022/09/12 12:21:43;;;;;;;;;;;29.80;87.20;;;;;;5077253;28;20284;-59
2022/09/12 12:24:17;;;;;;;;;;;30.40;87.50;;;;;;5077175;28;19914;-61
2022/09/12 12:26:55;;;;;;;;;;;30.80;87.90;;;;;;5077692;28;20227;-61
2022/09/12 12:29:21;;;;;;;;;;;30.10;88.30;;;;;;5076385;28;20248;-61
2022/09/12 12:32:00;;;;;;;;;;;29.90;89.50;;;;;;5077065;28;20007;-61
2022/09/12 12:34:31;;;;;;;;;;;30.30;90.60;;;;;;5076240;28;20292;-61
2022/09/12 12:36:57;;;;;;;;;;;31.50;88.30;;;;;;5077110;28;20191;-62
2022/09/12 12:39:32;;;;;;;;;;;31.10;86.20;;;;;;5076082;28;19920;-61
2022/09/12 12:41:58;;;;;;;;;;;31.00;89.00;;;;;;5077100;28;19912;-60
2022/09/12 12:44:43;;;;;;;;;;;31.90;83.90;;;;;;5077286;28;19912;-62
2022/09/12 12:47:30;;;;;;;;;;;30.00;86.00;;;;;;5076986;28;19916;-62
2022/09/12 12:49:56;;;;;;;;;;;30.50;86.70;;;;;;5076998;28;19997;-62
2022/09/12 12:52:24;;;;;;;;;;;30.40;85.60;;;;;;5076979;28;19904;-61
2022/09/12 12:54:51;;;;;;;;;;;31.60;83.20;;;;;;5076851;28;19954;-61
2022/09/12 12:57:35;;;;;;;;;;;33.60;77.60;;;;;;5076880;28;19944;-63
2022/09/12 13:00:05;;;;;;;;;;;34.50;73.00;;;;;;5076830;28;19908;-63
2022/09/12 13:02:48;;;;;;;;;;;33.50;72.90;;;;;;5080397;28;19904;-62
2022/09/12 13:05:19;;;;;;;;;;;32.20;76.90;;;;;;5080473;28;19908;-62
2022/09/12 13:07:47;;;;;;;;;;;32.10;77.10;;;;;;5080551;28;19915;-61
2022/09/12 13:10:27;;;;;;;;;;;30.90;81.10;;;;;;5080299;28;19913;-62
2022/09/12 13:12:54;;;;;;;;;;;30.50;83.10;;;;;;5081065;28;20176;-58
2022/09/12 13:15:35;;;;;;;;;;;30.90;83.80;;;;;;5080360;28;19913;-58
2022/09/12 13:18:03;;;;;;;;;;;30.80;82.80;;;;;;5080314;28;19969;-61
2022/09/12 13:20:30;;;;;;;;;;;31.60;79.80;;;;;;5080288;28;19920;-61
2022/09/12 13:22:56;;;;;;;;;;;32.10;77.70;;;;;;5096866;28;20173;-61
2022/09/12 13:25:22;;;;;;;;;;;30.80;81.10;;;;;;5080492;28;20187;-61
2022/09/12 13:27:58;;;;;;;;;;;30.80;81.50;;;;;;5080603;28;19913;-61
2022/09/12 13:30:24;;;;;;;;;;;29.50;84.20;;;;;;5079909;28;19912;-61
2022/09/12 13:32:51;;;;;;;;;;;28.50;88.80;;;;;;5080541;28;19908;-61
2022/09/12 13:35:41;;;;;;;;;;;28.00;91.10;;;;;;5079891;28;19920;-62
2022/09/12 13:38:14;;;;;;;;;;;28.90;90.40;;;;;;5078903;28;19912;-61
2022/09/12 13:40:51;;;;;;;;;;;30.10;87.40;;;;;;5079875;28;19923;-61
2022/09/12 13:43:21;;;;;;;;;;;30.00;85.00;;;;;;5095959;28;19919;-61
2022/09/12 13:45:47;;;;;;;;;;;30.20;86.80;;;;;;5080335;28;19909;-60
2022/09/12 13:48:18;;;;;;;;;;;30.00;86.30;;;;;;5079577;28;19923;-62
2022/09/12 13:50:43;;;;;;;;;;;30.50;85.00;;;;;;5079558;28;19912;-61
2022/09/12 13:53:12;;;;;;;;;;;31.10;84.20;;;;;;5078800;28;20221;-61
2022/09/12 13:55:39;;;;;;;;;;;31.30;80.10;;;;;;5095768;28;19908;-60
2022/09/12 13:58:25;;;;;;;;;;;31.80;79.50;;;;;;5079584;28;19999;-61
2022/09/12 14:01:10;;;;;;;;;;;32.40;80.00;;;;;;5078978;28;19916;-61
2022/09/12 14:06:26;;;;;;;;;;;32.80;76.40;;;;;;5079418;28;20268;-61
2022/09/12 14:08:53;;;;;;;;;;;35.10;72.50;;;;;;5079294;28;19908;-61
2022/09/12 14:11:24;;;;;;;;;;;35.80;69.20;;;;;;5078799;28;20303;-62
2022/09/12 14:13:51;;;;;;;;;;;36.60;66.20;;;;;;5095865;28;19912;-62
2022/09/12 14:16:17;;;;;;;;;;;35.20;66.20;;;;;;5079299;28;19987;-61
2022/09/12 14:18:46;;;;;;;;;;;35.50;66.60;;;;;;5095568;28;20253;-62
2022/09/12 14:21:23;;;;;;;;;;;34.90;65.90;;;;;;5078448;28;19908;-62
2022/09/12 14:23:49;;;;;;;;;;;34.40;66.40;;;;;;5095068;28;20014;-62
2022/09/12 14:26:16;;;;;;;;;;;35.00;66.40;;;;;;5079330;28;20007;-61
2022/09/12 14:28:46;;;;;;;;;;;36.50;62.80;;;;;;5078952;28;19919;-61
2022/09/12 14:31:11;;;;;;;;;;;36.30;62.80;;;;;;5078841;28;19990;-61
2022/09/12 14:33:48;;;;;;;;;;;36.10;62.70;;;;;;5078914;28;19908;-61
2022/09/12 14:36:20;;;;;;;;;;;37.50;61.90;;;;;;5078807;28;19914;-62